Time;durP1;ratioP1;P1;durP2;ratioP2;P2;SDS_P1;SDS_P2;PMS_P1;PMS_P2;Temp;Humidity;BMP_temperature;BMP_pressure;BME280_temperature;BME280_humidity;BME280_pressure;Samples;Min_cycle;Max_cycle;Signal;HPM_P1;HPM_P2
2023/02/22 19:44:22;;;;;;;19.10;11.30;;;;;;;8.24;76.60;97962.09;7330782;19;19918;-79
2023/02/22 19:46:49;;;;;;;17.92;11.15;;;;;;;8.27;76.38;97963.59;7221756;19;2918589;-78
2023/02/22 19:49:16;;;;;;;19.00;12.13;;;;;;;8.32;76.64;97970.06;7373141;19;19926;-78
2023/02/22 19:51:43;;;;;;;19.90;11.30;;;;;;;8.33;76.60;97960.34;7377298;19;20016;-79
2023/02/22 19:54:16;;;;;;;24.15;12.75;;;;;;;8.34;76.40;97967.25;7377683;19;19929;-79
2023/02/22 19:56:42;;;;;;;19.30;12.02;;;;;;;8.38;76.56;97965.97;7363923;19;19922;-78
2023/02/22 19:59:15;;;;;;;17.88;11.73;;;;;;;8.41;76.54;97967.53;7364938;19;20700;-78
2023/02/22 20:01:43;;;;;;;21.95;14.23;;;;;;;8.47;76.70;97966.91;7365055;19;19914;-79
2023/02/22 20:04:16;;;;;;;20.08;14.27;;;;;;;8.78;75.35;97972.59;7370837;19;19952;-79
2023/02/22 20:06:44;;;;;;;25.42;13.13;;;;;;;8.85;75.28;97967.53;7365748;19;19925;-78
2023/02/22 20:09:15;;;;;;;20.60;13.25;;;;;;;8.95;74.92;97978.78;7375249;19;19918;-79
2023/02/22 20:11:46;;;;;;;19.27;12.95;;;;;;;8.94;74.52;97977.97;7375861;19;20600;-79
2023/02/22 20:14:16;;;;;;;19.60;13.32;;;;;;;8.89;74.79;97974.13;7379336;19;19918;-78
2023/02/22 20:16:43;;;;;;;19.05;13.02;;;;;;;8.90;74.67;97971.34;7384256;19;19929;-78
2023/02/22 20:19:12;;;;;;;23.17;15.15;;;;;;;8.91;75.10;97980.09;7377762;19;19922;-78
2023/02/22 20:21:39;;;;;;;23.00;13.23;;;;;;;9.04;74.76;97975.22;7367906;19;19925;-79
2023/02/22 20:24:08;;;;;;;22.38;13.95;;;;;;;9.12;74.50;97977.09;7375937;19;20545;-79
2023/02/22 20:26:36;;;;;;;19.58;13.60;;;;;;;9.15;74.38;97974.13;7378123;19;20357;-79
2023/02/22 20:29:05;;;;;;;23.85;14.75;;;;;;;9.17;74.45;97973.00;7389392;19;20435;-78
2023/02/22 20:31:31;;;;;;;23.40;14.38;;;;;;;9.21;74.36;97989.34;7383181;19;19935;-79
2023/02/22 20:33:59;;;;;;;20.63;14.00;;;;;;;9.13;74.39;97982.19;7381647;19;19919;-78
2023/02/22 20:36:28;;;;;;;18.95;13.23;;;;;;;9.13;74.63;97981.38;7382853;19;19919;-78
2023/02/22 20:38:57;;;;;;;21.10;13.48;;;;;;;9.10;74.52;97985.16;7387709;19;19933;-79
2023/02/22 20:41:31;;;;;;;20.05;13.35;;;;;;;9.05;74.48;97991.88;7375175;19;19926;-79
2023/02/22 20:43:59;;;;;;;19.65;12.88;;;;;;;8.96;74.92;97977.81;7362398;19;20622;-79
2023/02/22 20:46:30;;;;;;;21.73;14.20;;;;;;;8.84;75.15;97993.06;7351186;19;19922;-79
2023/02/22 20:48:59;;;;;;;19.85;13.38;;;;;;;8.83;75.99;97988.78;7378661;19;20734;-79
2023/02/22 20:51:26;;;;;;;20.30;13.85;;;;;;;8.82;75.93;97981.84;7386815;19;19915;-79
2023/02/22 20:53:53;;;;;;;24.35;16.50;;;;;;;8.77;76.07;97986.75;7388387;19;19923;-79
2023/02/22 20:56:21;;;;;;;21.08;13.95;;;;;;;8.72;76.16;97979.31;7386980;19;19919;-79
2023/02/22 20:58:48;;;;;;;21.25;12.68;;;;;;;8.66;76.28;97985.19;7384241;19;19910;-79
2023/02/22 21:01:17;;;;;;;22.30;15.43;;;;;;;8.56;76.60;97981.81;7387311;19;19922;-79
2023/02/22 21:03:45;;;;;;;21.40;14.75;;;;;;;8.43;77.15;97984.03;7368232;19;20321;-79
2023/02/22 21:06:16;;;;;;;23.35;14.75;;;;;;;8.40;77.81;97992.22;7359536;19;19918;-79
2023/02/22 21:08:44;;;;;;;24.23;15.45;;;;;;;8.32;78.20;97988.50;7361028;19;19919;-78
2023/02/22 21:11:13;;;;;;;24.40;15.88;;;;;;;8.38;78.22;97991.53;7373535;19;19933;-80
2023/02/22 21:13:40;;;;;;;26.75;16.23;;;;;;;8.32;78.05;97987.66;7389474;19;19914;-79
2023/02/22 21:16:09;;;;;;;23.08;15.30;;;;;;;8.26;78.20;97983.00;7382651;19;19924;-79
2023/02/22 21:18:36;;;;;;;25.27;16.38;;;;;;;8.28;78.68;97984.50;7378592;19;19942;-78
2023/02/22 21:21:11;;;;;;;26.42;15.73;;;;;;;8.32;78.85;97977.09;7397093;19;20256;-79
2023/02/22 21:23:39;;;;;;;22.95;14.75;;;;;;;8.38;78.34;97983.63;7389750;19;20359;-79
2023/02/22 21:26:11;;;;;;;21.75;13.63;;;;;;;8.33;77.77;97982.25;7376263;19;19922;-78
2023/02/22 21:28:38;;;;;;;21.27;13.77;;;;;;;8.21;78.14;97985.25;7350141;19;19922;-78
2023/02/22 21:31:18;;;;;;;24.50;14.98;;;;;;;8.19;78.37;97982.78;7358700;19;19918;-78
2023/02/22 21:33:48;;;;;;;25.42;15.88;;;;;;;8.07;78.36;97978.69;7372228;19;19926;-78
2023/02/22 21:36:15;;;;;;;22.60;14.13;;;;;;;8.00;78.53;97980.28;7371292;19;19914;-78
2023/02/22 21:38:44;;;;;;;23.13;15.73;;;;;;;7.88;79.09;97990.19;7373374;19;20548;-77
2023/02/22 21:41:15;;;;;;;22.08;14.63;;;;;;;7.93;78.81;97987.13;7373134;19;19998;-77
2023/02/22 21:43:42;;;;;;;24.63;16.55;;;;;;;7.83;79.53;97981.91;7373880;19;19930;-77
2023/02/22 21:46:09;;;;;;;23.88;15.85;;;;;;;7.78;79.08;97987.63;7374905;19;20427;-77
2023/02/22 21:48:37;;;;;;;28.08;17.58;;;;;;;7.73;79.34;97989.88;7374308;19;19926;-78
2023/02/22 21:51:12;;;;;;;23.02;14.80;;;;;;;7.66;79.48;97980.88;7364461;19;19952;-79
2023/02/22 21:53:47;;;;;;;26.45;16.42;;;;;;;7.59;80.04;97991.19;7373062;19;19942;-78
2023/02/22 21:56:17;;;;;;;22.77;15.57;;;;;;;7.61;79.92;97988.38;7377799;19;19918;-77
2023/02/22 21:58:45;;;;;;;24.60;14.98;;;;;;;7.59;79.99;97988.56;7384155;19;19922;-79
2023/02/22 22:01:15;;;;;;;21.02;14.23;;;;;;;7.55;79.89;97981.91;7384738;19;19918;-78
2023/02/22 22:03:44;;;;;;;21.30;14.48;;;;;;;7.48;79.89;97983.50;7385260;19;19929;-78
2023/02/22 22:06:13;;;;;;;22.73;15.02;;;;;;;7.44;79.77;97987.38;7385225;19;20006;-78
2023/02/22 22:08:52;;;;;;;23.10;15.57;;;;;;;7.38;79.84;97983.53;7392650;19;20211;-77
2023/02/22 22:11:19;;;;;;;23.17;15.30;;;;;;;7.35;80.46;97985.63;7384216;19;19929;-79
2023/02/22 22:13:48;;;;;;;22.15;14.85;;;;;;;7.34;80.33;97986.59;7375314;19;19918;-78
2023/02/22 22:16:19;;;;;;;20.70;13.50;;;;;;;7.31;80.51;97984.25;7378078;19;19915;-79
2023/02/22 22:18:46;;;;;;;24.15;15.27;;;;;;;7.27;80.63;97975.81;7400520;19;19918;-79
2023/02/22 22:21:19;;;;;;;22.90;16.35;;;;;;;7.25;80.76;97978.59;7400301;19;19921;-79
2023/02/22 22:23:49;;;;;;;21.75;14.15;;;;;;;7.23;80.60;97977.91;7408333;19;19918;-80
2023/02/22 22:26:18;;;;;;;22.90;15.18;;;;;;;7.21;80.74;97982.50;7415261;19;19923;-80
2023/02/22 22:28:48;;;;;;;22.70;14.63;;;;;;;7.21;81.03;97984.28;7409204;19;19927;-79
2023/02/22 22:31:16;;;;;;;23.00;16.45;;;;;;;7.17;81.08;97977.66;7412333;19;19923;-78
2023/02/22 22:33:45;;;;;;;26.13;15.05;;;;;;;7.18;81.02;97976.66;7391696;19;20815;-79
2023/02/22 22:36:15;;;;;;;18.30;12.50;;;;;;;7.19;81.12;97973.09;7375325;19;19934;-79
2023/02/22 22:38:42;;;;;;;21.35;14.93;;;;;;;7.18;81.07;97977.50;7375715;19;19929;-80
2023/02/22 22:41:12;;;;;;;27.90;15.05;;;;;;;7.19;81.05;97976.53;7400528;19;19950;-79
2023/02/22 22:43:44;;;;;;;19.92;13.70;;;;;;;7.17;81.18;97970.59;7396606;19;19936;-80
2023/02/22 22:46:13;;;;;;;17.42;13.55;;;;;;;7.21;81.13;97973.75;7391694;19;19922;-78
2023/02/22 22:48:39;;;;;;;24.65;14.25;;;;;;;7.20;81.12;97974.72;7393507;19;20278;-77
2023/02/22 22:51:13;;;;;;;21.23;14.55;;;;;;;7.20;81.33;97980.00;7396704;19;19918;-78
2023/02/22 22:53:42;;;;;;;20.48;15.55;;;;;;;7.20;81.39;97972.94;7400069;19;19910;-77
2023/02/22 22:56:15;;;;;;;22.05;15.85;;;;;;;7.23;81.29;97972.63;7402765;19;20296;-78
2023/02/22 22:58:49;;;;;;;23.25;15.52;;;;;;;7.23;81.20;97970.00;7394703;19;20276;-79
2023/02/22 23:01:18;;;;;;;26.48;16.02;;;;;;;7.24;81.44;97965.56;7396244;19;19919;-80
2023/02/22 23:03:53;;;;;;;24.98;15.88;;;;;;;7.26;81.49;97971.50;7392515;19;19925;-80
2023/02/22 23:06:25;;;;;;;25.05;16.20;;;;;;;7.28;81.39;97977.47;7390162;19;19918;-82
2023/02/22 23:08:58;;;;;;;22.73;16.00;;;;;;;7.31;81.31;97971.09;7391251;19;20351;-81
2023/02/22 23:11:27;;;;;;;21.42;14.63;;;;;;;7.30;81.11;97969.44;7393885;19;19910;-80
2023/02/22 23:13:55;;;;;;;19.85;14.82;;;;;;;7.35;81.12;97973.28;7393276;19;20271;-80
2023/02/22 23:16:23;;;;;;;20.52;14.73;;;;;;;7.38;81.08;97970.38;7392941;19;20890;-78
2023/02/22 23:18:50;;;;;;;21.50;15.10;;;;;;;7.42;81.09;97976.16;7393625;19;19914;-80
2023/02/22 23:21:18;;;;;;;20.15;13.60;;;;;;;7.43;81.04;97980.47;7394864;19;19922;-81
2023/02/22 23:23:50;;;;;;;25.10;15.68;;;;;;;7.42;80.95;97981.41;7390038;19;19910;-80
2023/02/22 23:26:17;;;;;;;21.58;15.40;;;;;;;7.35;81.08;97986.44;7396796;19;20256;-80
2023/02/22 23:28:45;;;;;;;23.83;15.10;;;;;;;7.42;81.20;97987.50;7392341;19;20340;-80
2023/02/22 23:31:14;;;;;;;19.13;14.23;;;;;;;7.46;81.08;97983.63;7395354;19;20014;-80
2023/02/22 23:33:43;;;;;;;20.55;13.60;;;;;;;7.50;80.76;97993.84;7392320;19;19930;-79
2023/02/22 23:36:11;;;;;;;19.98;13.32;;;;;;;7.53;80.60;97985.66;7393302;19;20346;-80
2023/02/22 23:38:40;;;;;;;19.02;12.70;;;;;;;7.55;80.54;97987.19;7394328;19;19942;-80
2023/02/22 23:41:09;;;;;;;21.98;13.95;;;;;;;7.56;80.41;97975.69;7393897;19;19918;-79
2023/02/22 23:43:40;;;;;;;18.20;12.82;;;;;;;7.58;80.22;97984.28;7391886;19;20421;-79
2023/02/22 23:46:10;;;;;;;21.05;13.88;;;;;;;7.51;80.38;97977.94;7393035;19;20296;-79
2023/02/22 23:48:45;;;;;;;23.75;14.85;;;;;;;7.55;80.07;97986.34;7395678;19;19925;-80
2023/02/22 23:51:14;;;;;;;22.25;13.70;;;;;;;7.48;80.22;97981.69;7393827;19;19984;-79
2023/02/22 23:53:48;;;;;;;21.05;14.43;;;;;;;7.53;80.18;97988.28;7387452;19;19925;-80
2023/02/22 23:56:17;;;;;;;23.02;14.18;;;;;;;7.55;80.42;97983.72;7386485;19;19926;-79
2023/02/22 23:58:49;;;;;;;20.83;14.15;;;;;;;7.55;80.24;97981.91;7392365;19;19942;-79
